Terminal Aerodrome Forecast
Issued by NWS

Home | Current Version | Previous Version | Text Only | Print | Product List | Glossary On
Versions: 1 2 3 4 5 6 7 8 9 10 11 12 13 14 15 16 17 18
000
FTUS42 KILM 291359 AAA
TAFCRE
TAF AMD
KCRE 291359Z 2914/3012 35008KT P6SM SCT015
     FM291500 02007KT P6SM SCT045
     FM291800 15008KT P6SM SKC
     FM300100 17003KT P6SM SKC=

USA.gov is the U.S. government's official web portal to all federal, state and local government web resources and services.